createdAt,value
2024-03-05T00:00:47.248Z,52.67
2024-03-05T00:01:47.248Z,51.77
2024-03-05T00:02:47.286Z,51.61
2024-03-05T00:03:47.354Z,50.42
2024-03-05T00:04:47.467Z,51.04
2024-03-05T00:05:47.477Z,50.71
2024-03-05T00:06:47.574Z,53.11
2024-03-05T00:07:47.628Z,52.89
2024-03-05T00:08:47.662Z,52.57
2024-03-05T00:09:47.725Z,52.12
2024-03-05T00:10:47.922Z,52.41
2024-03-05T00:11:47.965Z,50.87
2024-03-05T00:12:47.960Z,52.90
2024-03-05T00:13:48.034Z,51.56
2024-03-05T00:14:48.162Z,52.25
2024-03-05T00:15:48.135Z,52.13
2024-03-05T00:16:48.227Z,50.43
2024-03-05T00:17:48.298Z,53.31
2024-03-05T00:18:48.312Z,50.72
2024-03-05T00:19:48.462Z,51.73
2024-03-05T00:20:48.485Z,50.73
2024-03-05T00:21:48.564Z,52.63
2024-03-05T00:22:48.697Z,51.11
2024-03-05T00:23:48.669Z,51.00
2024-03-05T00:24:48.729Z,51.67
2024-03-05T00:25:48.863Z,50.35
2024-03-05T00:26:48.899Z,52.82
2024-03-05T00:27:48.940Z,50.67
2024-03-05T00:28:49.022Z,51.55
2024-03-05T00:29:49.052Z,53.98
2024-03-05T00:30:49.142Z,52.67
2024-03-05T00:31:49.644Z,51.88
2024-03-05T00:32:49.307Z,51.62
2024-03-05T00:33:49.297Z,50.53
2024-03-05T00:34:49.477Z,50.00
2024-03-05T00:35:49.455Z,50.30
2024-03-05T00:36:49.519Z,52.65
2024-03-05T00:37:49.615Z,50.79
2024-03-05T00:38:49.631Z,48.90
2024-03-05T00:39:49.709Z,51.86
2024-03-05T00:40:49.846Z,51.61
2024-03-05T00:41:49.835Z,52.21
2024-03-05T00:42:49.924Z,51.22
2024-03-05T00:43:50.024Z,51.50
2024-03-05T00:44:50.022Z,50.57
2024-03-05T00:45:50.150Z,51.31
2024-03-05T00:46:50.494Z,50.28
2024-03-05T00:47:50.297Z,51.22
2024-03-05T00:48:50.281Z,49.96
2024-03-05T00:49:50.384Z,52.87
2024-03-05T00:50:50.461Z,54.05
2024-03-05T00:51:50.540Z,52.92
2024-03-05T00:52:50.604Z,52.71
2024-03-05T00:53:50.668Z,50.54
2024-03-05T00:54:50.734Z,53.82
2024-03-05T00:55:50.872Z,51.73
2024-03-05T00:56:50.913Z,53.18
2024-03-05T00:57:50.970Z,54.20
2024-03-05T00:58:51.084Z,52.55
2024-03-05T00:59:51.074Z,54.13
2024-03-05T01:00:51.153Z,53.09
2024-03-05T01:01:51.275Z,53.29
2024-03-05T01:02:51.305Z,52.76
2024-03-05T01:03:51.384Z,53.44
2024-03-05T01:04:51.656Z,53.24
2024-03-05T01:05:51.598Z,55.41
2024-03-05T01:06:51.597Z,55.26
2024-03-05T01:07:51.729Z,55.54
2024-03-05T01:08:51.711Z,55.08
2024-03-05T01:09:51.757Z,53.94
2024-03-05T01:10:51.888Z,54.75
2024-03-05T01:11:51.928Z,55.31
2024-03-05T01:12:51.993Z,55.80
2024-03-05T01:13:52.151Z,55.13
2024-03-05T01:14:52.124Z,56.54
2024-03-05T01:15:52.182Z,56.08
2024-03-05T01:16:52.297Z,57.71
2024-03-05T01:17:52.378Z,57.37
2024-03-05T01:18:52.458Z,56.57
2024-03-05T01:19:52.498Z,56.90
2024-03-05T01:20:52.554Z,56.99
2024-03-05T01:21:52.596Z,56.78
2024-03-05T01:22:52.756Z,57.12
2024-03-05T01:23:52.728Z,59.58
2024-03-05T01:24:52.797Z,56.25
2024-03-05T01:25:52.994Z,55.59
2024-03-05T01:26:52.926Z,58.11
2024-03-05T01:27:53.009Z,58.70
2024-03-05T01:28:53.132Z,59.68
2024-03-05T01:29:53.190Z,61.00
2024-03-05T01:30:53.214Z,60.81
2024-03-05T01:31:53.388Z,60.92
2024-03-05T01:32:53.383Z,62.10
2024-03-05T01:33:53.437Z,61.11
2024-03-05T01:34:53.541Z,59.87
2024-03-05T01:35:53.596Z,60.95
2024-03-05T01:36:53.603Z,60.22
2024-03-05T01:37:53.714Z,60.50
2024-03-05T01:38:53.762Z,59.92
2024-03-05T01:39:53.850Z,61.64
2024-03-05T01:40:53.992Z,60.56
2024-03-05T01:41:53.983Z,62.12
2024-03-05T01:42:54.048Z,61.03
2024-03-05T01:43:54.118Z,61.15
2024-03-05T01:44:54.192Z,60.44
2024-03-05T01:45:54.275Z,60.23
2024-03-05T01:46:54.431Z,61.22
2024-03-05T01:47:54.410Z,61.04
2024-03-05T01:48:54.477Z,60.55
2024-03-05T01:49:54.617Z,60.76
2024-03-05T01:50:54.626Z,60.08
2024-03-05T01:51:54.727Z,60.79
2024-03-05T01:52:54.894Z,62.48
2024-03-05T01:53:54.813Z,61.82
2024-03-05T01:54:56.740Z,64.21
2024-03-05T01:55:55.066Z,61.79
2024-03-05T01:56:55.096Z,61.55
2024-03-05T01:57:55.133Z,60.91
2024-03-05T01:58:55.203Z,62.57
2024-03-05T01:59:55.298Z,65.11
2024-03-05T02:00:55.412Z,65.14
2024-03-05T02:01:55.463Z,64.33
2024-03-05T02:02:55.523Z,63.31
2024-03-05T02:03:55.574Z,64.21
2024-03-05T02:04:55.710Z,61.71
2024-03-05T02:05:55.686Z,61.25
2024-03-05T02:06:55.754Z,61.88
2024-03-05T02:07:55.976Z,59.39
2024-03-05T02:08:55.896Z,61.55
2024-03-05T02:09:55.982Z,59.01
2024-03-05T02:10:56.144Z,59.19
2024-03-05T02:11:59.514Z,59.54
2024-03-05T02:12:57.132Z,59.55
2024-03-05T02:13:56.151Z,59.64
2024-03-05T02:14:56.126Z,58.18
2024-03-05T02:15:56.115Z,58.72
2024-03-05T02:16:56.226Z,57.88
2024-03-05T02:17:56.214Z,59.97
2024-03-05T02:18:56.106Z,60.02
2024-03-05T02:19:56.226Z,59.22
2024-03-05T02:20:56.240Z,59.36
2024-03-05T02:21:56.295Z,61.23
2024-03-05T02:22:56.468Z,59.46
2024-03-05T02:23:56.466Z,62.09
2024-03-05T02:24:56.535Z,62.24
2024-03-05T02:25:56.669Z,59.83
2024-03-05T02:26:56.682Z,61.26
2024-03-05T02:27:56.737Z,59.62
2024-03-05T02:28:56.833Z,60.12
2024-03-05T02:29:56.898Z,60.24
2024-03-05T02:30:56.963Z,61.22
2024-03-05T02:31:57.090Z,60.63
2024-03-05T02:32:57.124Z,60.85
2024-03-05T02:33:57.185Z,60.41
2024-03-05T02:34:57.277Z,59.52
2024-03-05T02:35:57.285Z,59.81
2024-03-05T02:36:57.384Z,60.38
2024-03-05T02:37:57.486Z,59.63
2024-03-05T02:38:57.504Z,60.33
2024-03-05T02:39:57.561Z,62.97
2024-03-05T02:40:57.730Z,63.08
2024-03-05T02:41:57.712Z,62.94
2024-03-05T02:42:57.766Z,62.42
2024-03-05T02:43:57.894Z,61.60
2024-03-05T02:44:57.884Z,61.10
2024-03-05T02:45:57.946Z,62.13
2024-03-05T02:46:58.009Z,60.41
2024-03-05T02:47:58.104Z,59.63
2024-03-05T02:48:58.124Z,60.29
2024-03-05T02:49:58.243Z,59.75
2024-03-05T02:50:58.261Z,61.93
2024-03-05T02:51:58.362Z,61.67
2024-03-05T02:52:58.513Z,60.79
2024-03-05T02:53:58.488Z,60.52
2024-03-05T02:54:58.533Z,59.74
2024-03-05T02:55:58.752Z,61.56
2024-03-05T02:56:58.687Z,59.89
2024-03-05T02:57:58.770Z,60.94
2024-03-05T02:58:58.869Z,62.11
2024-03-05T02:59:58.915Z,61.39
2024-03-05T03:00:59.026Z,62.68
2024-03-05T03:01:59.025Z,62.26
2024-03-05T03:02:59.122Z,62.53
2024-03-05T03:03:59.196Z,62.81
2024-03-05T03:04:59.310Z,63.77
2024-03-05T03:05:59.346Z,64.78
2024-03-05T03:06:59.402Z,65.99
2024-03-05T03:07:59.549Z,62.86
2024-03-05T03:08:59.558Z,63.52
2024-03-05T03:09:59.612Z,63.08
2024-03-05T03:10:59.796Z,63.30
2024-03-05T03:11:59.851Z,65.44
2024-03-05T03:12:59.864Z,63.53
2024-03-05T03:13:59.908Z,64.46
2024-03-05T03:15:00.008Z,63.92
2024-03-05T03:16:00.039Z,65.57
2024-03-05T03:17:00.142Z,63.65
2024-03-05T03:18:00.261Z,64.10
2024-03-05T03:19:00.260Z,63.65
2024-03-05T03:20:00.382Z,63.56
2024-03-05T03:21:00.394Z,63.96
2024-03-05T03:22:00.492Z,61.70
2024-03-05T03:23:00.613Z,62.56
2024-03-05T03:24:00.628Z,62.02
2024-03-05T03:25:00.669Z,58.34
2024-03-05T03:26:00.742Z,60.31
2024-03-05T03:27:00.878Z,60.77
2024-03-05T03:28:00.883Z,58.23
2024-03-05T03:29:00.965Z,59.80
2024-03-05T03:30:01.003Z,59.63
2024-03-05T03:31:01.076Z,58.84
2024-03-05T03:32:01.151Z,59.10
2024-03-05T03:33:01.218Z,60.05
2024-03-05T03:34:01.225Z,58.34
2024-03-05T03:35:01.348Z,58.37
2024-03-05T03:36:01.350Z,56.48
2024-03-05T03:37:01.460Z,59.27
2024-03-05T03:38:01.485Z,59.92
2024-03-05T03:39:01.512Z,60.60
2024-03-05T03:40:01.589Z,59.94
2024-03-05T03:41:01.672Z,58.50
2024-03-05T03:42:01.714Z,58.64
2024-03-05T03:43:01.764Z,59.22
2024-03-05T03:44:01.800Z,58.78
2024-03-05T03:45:01.846Z,58.92
2024-03-05T03:46:01.924Z,58.24
2024-03-05T03:47:01.975Z,55.62
2024-03-05T03:48:02.075Z,57.29
2024-03-05T03:49:02.015Z,55.63
2024-03-05T03:50:02.126Z,56.41
2024-03-05T03:51:02.113Z,56.61
2024-03-05T03:52:02.119Z,55.39
2024-03-05T03:53:02.198Z,54.24
2024-03-05T03:54:02.176Z,53.78
2024-03-05T03:55:02.215Z,55.69
2024-03-05T03:56:02.253Z,54.25
2024-03-05T03:57:02.273Z,55.89
2024-03-05T03:58:02.323Z,54.85
2024-03-05T03:59:02.383Z,56.37
2024-03-05T04:00:02.393Z,56.87
2024-03-05T04:01:02.440Z,59.86
2024-03-05T04:02:02.567Z,57.49
2024-03-05T04:03:02.528Z,57.75
2024-03-05T04:04:02.557Z,58.64
2024-03-05T04:05:02.637Z,60.11
2024-03-05T04:06:02.623Z,58.05
2024-03-05T04:07:02.653Z,57.72
2024-03-05T04:08:04.872Z,56.80
2024-03-05T04:09:02.886Z,57.15
2024-03-05T04:10:02.988Z,58.39
2024-03-05T04:11:03.150Z,61.60
2024-03-05T04:12:03.085Z,60.43
2024-03-05T04:13:03.155Z,58.83
2024-03-05T04:14:04.615Z,60.17
2024-03-05T04:15:03.247Z,58.63
2024-03-05T04:16:03.274Z,57.67
2024-03-05T04:17:03.357Z,57.07
2024-03-05T04:18:03.475Z,60.48
2024-03-05T04:19:03.464Z,60.52
2024-03-05T04:20:03.575Z,61.86
2024-03-05T04:21:03.536Z,61.25
2024-03-05T04:22:03.610Z,59.99
2024-03-05T04:23:03.722Z,59.19
2024-03-05T04:24:03.687Z,58.81
2024-03-05T04:25:03.723Z,56.11
2024-03-05T04:26:03.750Z,57.01
2024-03-05T04:27:03.772Z,57.18
2024-03-05T04:28:03.796Z,59.45
2024-03-05T04:29:03.935Z,58.03
2024-03-05T04:30:03.848Z,58.95
2024-03-05T04:31:03.963Z,56.82
2024-03-05T04:32:03.972Z,56.34
2024-03-05T04:33:04.012Z,54.89
2024-03-05T04:34:03.976Z,55.00
2024-03-05T04:35:04.050Z,52.44
2024-03-05T04:36:04.023Z,51.31
2024-03-05T04:37:04.130Z,51.98
2024-03-05T04:38:04.088Z,50.00
2024-03-05T04:39:04.027Z,50.34
2024-03-05T04:40:04.057Z,50.56
2024-03-05T04:41:04.071Z,51.34
2024-03-05T04:42:04.047Z,51.25
2024-03-05T04:43:04.064Z,50.76
2024-03-05T04:44:04.074Z,51.20
2024-03-05T04:45:04.050Z,50.00
2024-03-05T04:46:04.064Z,53.03
2024-03-05T04:47:04.133Z,52.68
2024-03-05T04:48:04.125Z,52.01
2024-03-05T04:49:04.082Z,52.28
2024-03-05T04:50:04.121Z,51.28
2024-03-05T04:51:04.162Z,52.06
2024-03-05T04:52:04.098Z,52.68
2024-03-05T04:53:04.256Z,51.12
2024-03-05T04:54:11.626Z,50.00
2024-03-05T04:55:11.617Z,50.00
2024-03-05T04:56:11.685Z,50.00
2024-03-05T04:57:11.623Z,50.00
2024-03-05T04:58:11.620Z,50.00
2024-03-05T04:59:11.610Z,50.22
2024-03-05T05:00:11.605Z,52.40
2024-03-05T05:01:11.691Z,54.64
2024-03-05T05:02:11.709Z,51.34
2024-03-05T05:03:11.637Z,53.88
2024-03-05T05:04:11.614Z,50.39
2024-03-05T05:05:11.660Z,54.50
2024-03-05T05:06:11.622Z,53.30
2024-03-05T05:07:11.599Z,55.00
2024-03-05T05:08:11.633Z,50.00
2024-03-05T05:09:11.624Z,53.27
2024-03-05T05:10:11.645Z,53.60
2024-03-05T05:11:11.756Z,55.73
2024-03-05T05:12:11.623Z,56.62
2024-03-05T05:13:11.653Z,53.96
2024-03-05T05:14:11.649Z,56.53
2024-03-05T05:15:11.641Z,58.44
2024-03-05T05:16:11.636Z,56.75
2024-03-05T05:17:11.633Z,55.73
2024-03-05T05:18:11.683Z,58.53
2024-03-05T05:19:11.634Z,59.29
2024-03-05T05:20:11.730Z,57.66
2024-03-05T05:21:11.645Z,58.91
2024-03-05T05:22:11.644Z,58.26
2024-03-05T05:23:11.648Z,57.13
2024-03-05T05:24:11.654Z,58.14
2024-03-05T05:25:11.634Z,57.30
2024-03-05T05:26:11.636Z,57.22
2024-03-05T05:27:11.680Z,55.27
2024-03-05T05:28:11.670Z,55.18
2024-03-05T05:29:17.525Z,56.40
2024-03-05T05:30:14.313Z,56.52
2024-03-05T05:31:11.700Z,56.80
2024-03-05T05:32:11.647Z,57.15
2024-03-05T05:33:11.765Z,58.58
2024-03-05T05:34:11.676Z,58.81
2024-03-05T05:35:11.635Z,59.12
2024-03-05T05:36:11.660Z,57.95
2024-03-05T05:37:11.673Z,56.18
2024-03-05T05:38:11.762Z,55.76
2024-03-05T05:39:11.657Z,55.43
2024-03-05T05:40:11.725Z,58.18
2024-03-05T05:41:11.752Z,56.02
2024-03-05T05:42:11.672Z,58.47
2024-03-05T05:43:11.656Z,56.70
2024-03-05T05:44:11.689Z,60.08
2024-03-05T05:45:11.661Z,56.04
2024-03-05T05:46:11.705Z,57.88
2024-03-05T05:47:11.859Z,57.75
2024-03-05T05:48:11.803Z,62.56
2024-03-05T05:49:11.688Z,59.86
2024-03-05T05:50:11.694Z,65.00
2024-03-05T05:51:11.740Z,62.91
2024-03-05T05:52:11.669Z,56.96
2024-03-05T05:53:11.688Z,50.31
2024-03-05T05:54:11.790Z,54.39
2024-03-05T05:55:11.702Z,53.84
2024-03-05T05:56:11.653Z,54.26
2024-03-05T05:57:11.671Z,50.46
2024-03-05T05:58:11.690Z,51.88
2024-03-05T05:59:11.689Z,55.39
2024-03-05T06:00:11.700Z,58.34
2024-03-05T06:01:11.704Z,59.41
2024-03-05T06:02:11.766Z,56.89
2024-03-05T06:03:11.700Z,60.04
2024-03-05T06:04:11.715Z,59.80
2024-03-05T06:05:11.698Z,63.02
2024-03-05T06:06:11.711Z,62.89
2024-03-05T06:07:12.250Z,58.03
2024-03-05T06:08:12.289Z,61.50
2024-03-05T06:09:11.677Z,61.71
2024-03-05T06:10:11.725Z,67.60
2024-03-05T06:11:11.863Z,68.50
2024-03-05T06:12:11.708Z,69.36
2024-03-05T06:13:11.746Z,66.72
2024-03-05T06:14:11.693Z,64.24
2024-03-05T06:15:11.721Z,70.81
2024-03-05T06:16:11.727Z,72.32
2024-03-05T06:17:11.761Z,74.13
2024-03-05T06:18:11.783Z,71.06
2024-03-05T06:19:11.707Z,70.22
2024-03-05T06:20:11.805Z,74.15
2024-03-05T06:21:11.718Z,75.62
2024-03-05T06:22:13.960Z,75.50
2024-03-05T06:23:11.869Z,74.94
2024-03-05T06:24:11.741Z,75.71
2024-03-05T06:25:11.739Z,75.80
2024-03-05T06:26:11.755Z,76.73
2024-03-05T06:27:11.735Z,77.12
2024-03-05T06:28:11.720Z,75.63
2024-03-05T06:29:11.773Z,76.43
2024-03-05T06:30:11.750Z,76.20
2024-03-05T06:31:11.740Z,80.32
2024-03-05T06:32:11.781Z,80.05
2024-03-05T06:33:11.872Z,79.56
2024-03-05T06:34:11.914Z,79.62
2024-03-05T06:35:11.946Z,81.09
2024-03-05T06:36:12.020Z,88.21
2024-03-05T06:37:12.059Z,88.39
2024-03-05T06:38:12.130Z,80.38
2024-03-05T06:39:12.165Z,79.80
2024-03-05T06:40:12.257Z,71.05
2024-03-05T06:41:12.326Z,73.07
2024-03-05T06:42:12.314Z,78.79
2024-03-05T06:43:12.367Z,84.14
2024-03-05T06:44:12.387Z,92.56
2024-03-05T06:45:12.430Z,100.04
2024-03-05T06:46:12.453Z,101.50
2024-03-05T06:47:12.509Z,103.71
2024-03-05T06:48:17.365Z,107.65
2024-03-05T06:49:13.530Z,108.03
2024-03-05T06:50:12.566Z,109.47
2024-03-05T06:51:12.574Z,113.45
2024-03-05T06:52:12.560Z,121.86
2024-03-05T06:53:12.585Z,134.92
2024-03-05T06:54:12.629Z,141.00
2024-03-05T06:55:12.580Z,147.91
2024-03-05T06:56:13.267Z,152.19
2024-03-05T06:57:12.553Z,157.00
2024-03-05T06:58:12.569Z,159.23
2024-03-05T06:59:12.565Z,161.10
2024-03-05T07:00:12.565Z,162.34
2024-03-05T07:01:12.659Z,162.77
2024-03-05T07:02:12.573Z,163.64
2024-03-05T07:03:12.562Z,168.75
2024-03-05T07:04:12.561Z,169.50
2024-03-05T07:05:12.651Z,170.82
2024-03-05T07:06:12.574Z,175.23
2024-03-05T07:07:12.591Z,178.64
2024-03-05T07:08:12.547Z,184.82
2024-03-05T07:09:12.684Z,184.24
2024-03-05T07:10:12.601Z,189.03
2024-03-05T07:11:12.770Z,188.97
2024-03-05T07:12:12.611Z,192.86
2024-03-05T07:13:12.711Z,196.00
2024-03-05T07:14:12.872Z,199.84
2024-03-05T07:15:12.844Z,200.00
2024-03-05T07:16:12.849Z,200.48
2024-03-05T07:17:12.920Z,199.93
2024-03-05T07:18:13.033Z,198.93
2024-03-05T07:19:12.984Z,200.00
2024-03-05T07:20:13.063Z,199.74
2024-03-05T07:21:13.786Z,200.00
2024-03-05T07:22:13.139Z,199.69
2024-03-05T07:23:13.151Z,199.49
2024-03-05T07:24:13.193Z,199.27
2024-03-05T07:25:13.219Z,200.00
2024-03-05T07:26:13.319Z,200.00
2024-03-05T07:27:13.330Z,199.79
2024-03-05T07:28:13.402Z,198.90
2024-03-05T07:29:13.469Z,199.91
2024-03-05T07:30:13.443Z,200.00
2024-03-05T07:31:13.535Z,200.25
2024-03-05T07:32:13.611Z,200.00
2024-03-05T07:33:13.661Z,199.61
2024-03-05T07:34:13.701Z,199.07
2024-03-05T07:35:13.740Z,199.72
2024-03-05T07:36:13.858Z,198.67
2024-03-05T07:37:13.845Z,199.25
2024-03-05T07:38:13.900Z,200.00
2024-03-05T07:39:14.033Z,199.54
2024-03-05T07:40:15.948Z,199.90
2024-03-05T07:41:22.513Z,200.00
2024-03-05T07:42:15.076Z,200.11
2024-03-05T07:43:14.106Z,200.36
2024-03-05T07:44:14.064Z,200.40
2024-03-05T07:45:14.120Z,201.11
2024-03-05T07:46:14.117Z,202.38
2024-03-05T07:47:14.066Z,199.23
2024-03-05T07:48:14.145Z,199.43
2024-03-05T07:49:14.072Z,198.45
2024-03-05T07:50:14.081Z,199.38
2024-03-05T07:51:19.559Z,199.75
2024-03-05T07:52:15.152Z,199.85
2024-03-05T07:53:14.164Z,200.28
2024-03-05T07:54:14.672Z,200.85
2024-03-05T07:55:14.211Z,202.41
2024-03-05T07:56:14.218Z,204.98
2024-03-05T07:57:14.142Z,200.05
2024-03-05T07:58:14.393Z,199.38
2024-03-05T07:59:14.153Z,199.46
2024-03-05T08:00:14.153Z,199.80
2024-03-05T08:01:14.296Z,200.00
2024-03-05T08:02:14.309Z,199.75
2024-03-05T08:03:14.322Z,198.58
2024-03-05T08:04:14.407Z,198.11
2024-03-05T08:05:14.433Z,196.36
2024-03-05T08:06:14.565Z,197.28
2024-03-05T08:07:14.585Z,197.67
2024-03-05T08:08:14.647Z,199.16
2024-03-05T08:09:14.700Z,198.09
2024-03-05T08:10:14.796Z,200.00
2024-03-05T08:11:14.952Z,199.84
2024-03-05T08:12:14.900Z,199.96
2024-03-05T08:13:14.951Z,199.54
2024-03-05T08:14:15.007Z,198.57
2024-03-05T08:15:15.031Z,199.41
2024-03-05T08:16:15.045Z,198.64
2024-03-05T08:17:15.062Z,198.69
2024-03-05T08:18:15.203Z,198.32
2024-03-05T08:19:15.066Z,197.47
2024-03-05T08:20:15.143Z,195.96
2024-03-05T08:21:15.110Z,196.22
2024-03-05T08:22:15.092Z,196.57
2024-03-05T08:23:15.129Z,197.44
2024-03-05T08:24:15.141Z,197.36
2024-03-05T08:25:15.113Z,198.19
2024-03-05T08:26:15.225Z,196.90
2024-03-05T08:27:15.138Z,198.89
2024-03-05T08:28:15.139Z,197.91
2024-03-05T08:29:15.151Z,197.29
2024-03-05T08:30:15.169Z,197.86
2024-03-05T08:31:15.173Z,196.71
2024-03-05T08:32:15.181Z,195.68
2024-03-05T08:33:15.223Z,194.83
2024-03-05T08:34:15.192Z,195.49
2024-03-05T08:35:15.207Z,193.58
2024-03-05T08:36:15.184Z,192.74
2024-03-05T08:37:15.225Z,190.91
2024-03-05T08:38:15.262Z,190.42
2024-03-05T08:39:15.231Z,190.30
2024-03-05T08:40:15.296Z,192.70
2024-03-05T08:41:15.354Z,194.27
2024-03-05T08:42:15.342Z,195.30
2024-03-05T08:43:15.480Z,196.05
2024-03-05T08:44:17.043Z,197.38
2024-03-05T08:45:15.510Z,199.40
2024-03-05T08:46:15.572Z,197.59
2024-03-05T08:47:15.629Z,197.72
2024-03-05T08:48:15.841Z,197.05
2024-03-05T08:49:15.799Z,198.08
2024-03-05T08:50:15.849Z,197.77
2024-03-05T08:51:15.910Z,197.39
2024-03-05T08:52:15.957Z,199.12
2024-03-05T08:53:16.028Z,199.45
2024-03-05T08:54:17.868Z,200.00
2024-03-05T08:55:16.193Z,198.50
2024-03-05T08:56:16.247Z,199.35
2024-03-05T08:57:16.330Z,199.43
2024-03-05T08:58:16.378Z,200.00
2024-03-05T08:59:16.463Z,197.63
2024-03-05T09:00:27.144Z,197.70
2024-03-05T09:01:17.658Z,197.77
2024-03-05T09:02:16.613Z,197.86
2024-03-05T09:03:16.549Z,197.72
2024-03-05T09:04:16.557Z,197.41
2024-03-05T09:05:16.550Z,197.56
2024-03-05T09:06:16.575Z,196.48
2024-03-05T09:07:16.535Z,197.25
2024-03-05T09:08:16.613Z,198.71
2024-03-05T09:09:16.557Z,198.59
2024-03-05T09:10:16.669Z,199.91
2024-03-05T09:11:16.803Z,199.43
2024-03-05T09:12:16.770Z,199.32
2024-03-05T09:13:16.851Z,198.18
2024-03-05T09:14:16.883Z,199.76
2024-03-05T09:15:17.212Z,199.67
2024-03-05T09:16:17.100Z,199.86
2024-03-05T09:17:17.109Z,199.64
2024-03-05T09:18:17.192Z,199.24
2024-03-05T09:19:17.252Z,199.51
2024-03-05T09:20:17.402Z,199.74
2024-03-05T09:21:17.353Z,198.55
2024-03-05T09:22:17.546Z,198.23
2024-03-05T09:23:17.820Z,198.92
2024-03-05T09:24:17.498Z,200.00
2024-03-05T09:25:17.566Z,198.81
2024-03-05T09:26:17.599Z,198.27
2024-03-05T09:27:17.668Z,199.45
2024-03-05T09:28:17.766Z,199.10
2024-03-05T09:29:17.814Z,198.39
2024-03-05T09:30:17.816Z,199.86
2024-03-05T09:31:17.938Z,199.49
2024-03-05T09:32:17.920Z,199.45
2024-03-05T09:33:17.985Z,200.00
2024-03-05T09:34:18.082Z,199.26
2024-03-05T09:35:18.114Z,198.29
2024-03-05T09:36:18.106Z,200.00
2024-03-05T09:37:18.202Z,197.63
2024-03-05T09:38:18.275Z,199.29
2024-03-05T09:39:18.278Z,198.81
2024-03-05T09:40:19.562Z,198.30
2024-03-05T09:41:18.396Z,198.34
2024-03-05T09:42:18.408Z,199.54
2024-03-05T09:43:18.501Z,199.61
2024-03-05T09:44:18.553Z,198.11
2024-03-05T09:45:19.564Z,199.75
2024-03-05T09:46:18.741Z,198.14
2024-03-05T09:47:18.715Z,195.44
2024-03-05T09:48:18.793Z,193.82
2024-03-05T09:49:22.889Z,192.05
2024-03-05T09:50:19.916Z,192.06
2024-03-05T09:51:18.782Z,189.59
2024-03-05T09:52:18.786Z,188.50
2024-03-05T09:53:18.796Z,187.59
2024-03-05T09:54:18.790Z,188.34
2024-03-05T09:55:19.334Z,187.97
2024-03-05T09:56:18.815Z,190.16
2024-03-05T09:57:18.843Z,190.23
2024-03-05T09:58:18.854Z,190.92
2024-03-05T09:59:18.802Z,193.03
2024-03-05T10:00:19.986Z,192.42
2024-03-05T10:01:18.923Z,192.16
2024-03-05T10:02:18.840Z,192.36
2024-03-05T10:03:18.829Z,192.05
2024-03-05T10:04:18.931Z,191.68
2024-03-05T10:05:18.903Z,193.79
2024-03-05T10:06:18.861Z,192.55
2024-03-05T10:07:18.870Z,195.42
2024-03-05T10:08:18.875Z,195.22
2024-03-05T10:09:20.479Z,197.21
2024-03-05T10:10:18.912Z,197.68
2024-03-05T10:11:19.045Z,199.13
2024-03-05T10:12:18.901Z,198.41
2024-03-05T10:13:18.972Z,199.10
2024-03-05T10:14:18.867Z,198.57
2024-03-05T10:15:19.057Z,198.53
2024-03-05T10:16:19.143Z,199.22
2024-03-05T10:17:18.885Z,199.72
2024-03-05T10:18:18.961Z,199.79
2024-03-05T10:19:18.966Z,199.00
2024-03-05T10:20:18.885Z,199.42
2024-03-05T10:21:18.920Z,199.86
2024-03-05T10:22:18.909Z,200.00
2024-03-05T10:23:18.910Z,199.90
2024-03-05T10:24:18.915Z,199.44
2024-03-05T10:25:19.413Z,198.65
2024-03-05T10:26:18.914Z,197.71
2024-03-05T10:27:18.870Z,197.54
2024-03-05T10:28:18.984Z,197.04
2024-03-05T10:29:18.913Z,197.44
2024-03-05T10:30:18.885Z,198.38
2024-03-05T10:31:18.933Z,200.00
2024-03-05T10:32:18.890Z,200.00
2024-03-05T10:33:18.928Z,199.21
2024-03-05T10:34:18.972Z,200.00
2024-03-05T10:35:18.922Z,199.55
2024-03-05T10:36:18.917Z,199.77
2024-03-05T10:37:19.066Z,199.33
2024-03-05T10:38:18.942Z,198.82
2024-03-05T10:39:18.974Z,199.21
2024-03-05T10:40:19.000Z,199.97
2024-03-05T10:41:18.910Z,200.00
2024-03-05T10:42:18.939Z,199.27
2024-03-05T10:43:18.994Z,199.98
2024-03-05T10:44:18.949Z,199.73
2024-03-05T10:45:18.943Z,199.00
2024-03-05T10:46:18.938Z,197.89
2024-03-05T10:47:18.945Z,194.23
2024-03-05T10:48:18.965Z,194.27
2024-03-05T10:49:19.066Z,189.63
2024-03-05T10:50:18.920Z,187.15
2024-03-05T10:51:18.936Z,184.63
2024-03-05T10:52:19.147Z,181.90
2024-03-05T10:53:18.952Z,180.30
2024-03-05T10:54:19.086Z,178.93
2024-03-05T10:55:18.981Z,178.72
2024-03-05T10:56:19.045Z,178.43
2024-03-05T10:57:18.955Z,179.62
2024-03-05T10:58:19.070Z,178.94
2024-03-05T10:59:18.962Z,181.96
2024-03-05T11:00:18.946Z,181.11
2024-03-05T11:01:19.049Z,182.48
2024-03-05T11:02:18.998Z,182.34
2024-03-05T11:03:19.311Z,182.85
2024-03-05T11:04:19.006Z,183.43
2024-03-05T11:05:18.974Z,183.16
2024-03-05T11:06:18.980Z,183.12
2024-03-05T11:07:20.598Z,184.59
2024-03-05T11:08:19.677Z,186.08
2024-03-05T11:09:18.985Z,188.71
2024-03-05T11:10:18.999Z,187.90
2024-03-05T11:11:19.081Z,189.86
2024-03-05T11:12:18.951Z,191.46
2024-03-05T11:13:18.963Z,191.35
2024-03-05T11:14:19.018Z,192.33
2024-03-05T11:15:18.999Z,192.42
2024-03-05T11:16:18.982Z,191.81
2024-03-05T11:17:19.094Z,192.09
2024-03-05T11:18:18.982Z,191.64
2024-03-05T11:19:19.078Z,193.02
2024-03-05T11:20:19.001Z,192.58
2024-03-05T11:21:19.041Z,193.70
2024-03-05T11:22:19.004Z,194.03
2024-03-05T11:23:18.992Z,195.27
2024-03-05T11:24:18.980Z,195.80
2024-03-05T11:25:18.970Z,196.60
2024-03-05T11:26:18.985Z,195.92
2024-03-05T11:27:18.973Z,196.34
2024-03-05T11:28:19.009Z,196.02
2024-03-05T11:29:19.177Z,194.72
2024-03-05T11:30:18.958Z,195.73
2024-03-05T11:31:20.720Z,195.52
2024-03-05T11:32:18.983Z,197.09
2024-03-05T11:33:19.020Z,196.94
2024-03-05T11:34:19.203Z,197.77
2024-03-05T11:35:19.007Z,197.79
2024-03-05T11:36:19.005Z,198.38
2024-03-05T11:37:18.988Z,198.04
2024-03-05T11:38:19.010Z,198.45
2024-03-05T11:39:19.268Z,197.47
2024-03-05T11:40:19.048Z,197.58
2024-03-05T11:41:19.001Z,196.84
2024-03-05T11:42:19.014Z,195.18
2024-03-05T11:43:19.035Z,192.88
2024-03-05T11:44:18.984Z,191.30
2024-03-05T11:45:19.030Z,191.21
2024-03-05T11:46:19.024Z,190.16
2024-03-05T11:47:19.075Z,189.57
2024-03-05T11:48:19.029Z,190.88
2024-03-05T11:49:19.044Z,190.93
2024-03-05T11:50:19.045Z,192.64
2024-03-05T11:51:19.072Z,193.00
2024-03-05T11:52:19.025Z,196.91
2024-03-05T11:53:19.112Z,197.79
2024-03-05T11:54:21.793Z,197.85
2024-03-05T11:55:19.068Z,197.99
2024-03-05T11:56:19.168Z,198.11
2024-03-05T11:57:19.032Z,197.09
2024-03-05T11:58:19.077Z,196.77
2024-03-05T11:59:19.064Z,197.52
2024-03-05T12:00:19.097Z,198.74
2024-03-05T12:01:19.063Z,199.17
2024-03-05T12:02:19.301Z,199.17
2024-03-05T12:03:19.056Z,199.29
2024-03-05T12:04:19.169Z,200.00
2024-03-05T12:05:19.284Z,200.00
2024-03-05T12:06:19.274Z,199.72
2024-03-05T12:07:19.363Z,198.45
2024-03-05T12:08:19.430Z,198.39
2024-03-05T12:09:19.593Z,199.20
2024-03-05T12:10:19.654Z,197.84
2024-03-05T12:11:19.725Z,197.89
2024-03-05T12:12:19.723Z,197.38
2024-03-05T12:13:19.884Z,195.07
2024-03-05T12:14:19.836Z,193.57
2024-03-05T12:15:19.896Z,191.54
2024-03-05T12:16:20.040Z,189.48
2024-03-05T12:17:20.196Z,187.58
2024-03-05T12:18:20.078Z,186.89
2024-03-05T12:19:20.204Z,184.82
2024-03-05T12:20:20.245Z,182.49
2024-03-05T12:21:21.492Z,181.89
2024-03-05T12:22:20.427Z,180.82
2024-03-05T12:23:40.448Z,182.81
2024-03-05T12:24:21.503Z,182.95
2024-03-05T12:25:20.462Z,183.50
2024-03-05T12:26:20.478Z,184.93
2024-03-05T12:27:20.435Z,187.61
2024-03-05T12:28:20.484Z,191.85
2024-03-05T12:29:20.424Z,193.18
2024-03-05T12:30:22.879Z,192.70
2024-03-05T12:31:20.488Z,196.23
2024-03-05T12:32:20.485Z,194.59
2024-03-05T12:33:20.449Z,193.25
2024-03-05T12:34:20.491Z,204.25
2024-03-05T12:35:20.501Z,197.09
2024-03-05T12:36:20.430Z,194.18
2024-03-05T12:37:20.779Z,193.04
2024-03-05T12:38:20.478Z,192.35
2024-03-05T12:39:20.457Z,190.62
2024-03-05T12:40:20.448Z,189.43
2024-03-05T12:41:20.468Z,188.58
2024-03-05T12:42:20.440Z,187.66